Time;durP1;ratioP1;P1;durP2;ratioP2;P2;SDS_P1;SDS_P2;PMS_P1;PMS_P2;Temp;Humidity;BMP_temperature;BMP_pressure;BME280_temperature;BME280_humidity;BME280_pressure;Samples;Min_cycle;Max_cycle;Signal;HPM_P1;HPM_P2
2022/07/20 00:00:50;;;;;;;0.63;0.63;;;17.90;99.90;;;;;;5052693;28;20649;-72
2022/07/20 00:03:16;;;;;;;0.57;0.57;;;17.90;99.90;;;;;;5052436;28;20200;-72
2022/07/20 00:05:43;;;;;;;0.90;0.60;;;17.90;99.90;;;;;;5052552;28;20202;-73
2022/07/20 00:08:09;;;;;;;0.68;0.52;;;17.90;99.90;;;;;;5034758;28;20198;-71
2022/07/20 00:13:21;;;;;;;0.65;0.60;;;17.90;99.90;;;;;;5052250;28;20205;-73
2022/07/20 00:15:47;;;;;;;0.30;0.30;;;17.90;99.90;;;;;;5034483;28;20277;-72
2022/07/20 00:18:14;;;;;;;0.50;0.50;;;17.90;99.90;;;;;;5052249;28;20666;-73
2022/07/20 00:20:40;;;;;;;0.68;0.60;;;17.90;99.90;;;;;;5051707;28;20269;-73
2022/07/20 00:23:06;;;;;;;0.40;0.40;;;17.90;99.90;;;;;;5052138;28;20672;-74
2022/07/20 00:25:31;;;;;;;1.35;0.77;;;17.90;99.90;;;;;;5051834;28;20232;-75
2022/07/20 00:27:57;;;;;;;0.57;0.57;;;17.90;99.90;;;;;;5052174;28;20567;-73
2022/07/20 00:30:23;;;;;;;0.60;0.52;;;17.90;99.90;;;;;;5034353;28;20201;-73
2022/07/20 00:32:50;;;;;;;0.40;0.40;;;17.90;99.90;;;;;;5034297;28;20225;-75
2022/07/20 00:35:16;;;;;;;0.60;0.60;;;17.90;99.90;;;;;;5051872;28;20204;-72
2022/07/20 00:37:43;;;;;;;0.60;0.60;;;17.80;99.90;;;;;;5051729;28;20194;-73
2022/07/20 00:40:11;;;;;;;0.40;0.40;;;17.70;99.90;;;;;;5034220;28;20255;-72
2022/07/20 00:42:37;;;;;;;0.70;0.60;;;17.70;99.90;;;;;;5033555;28;20204;-74
2022/07/20 00:45:05;;;;;;;0.40;0.40;;;17.70;99.90;;;;;;5051552;28;20185;-75
2022/07/20 00:47:31;;;;;;;0.38;0.38;;;17.70;99.90;;;;;;5033386;28;20417;-73
2022/07/20 00:49:57;;;;;;;0.22;0.22;;;17.70;99.90;;;;;;5051025;28;20197;-74
2022/07/20 00:52:23;;;;;;;0.40;0.40;;;17.70;99.90;;;;;;5051229;28;20214;-74
2022/07/20 00:54:50;;;;;;;0.52;0.52;;;17.70;99.90;;;;;;5051602;28;20189;-74
2022/07/20 00:57:16;;;;;;;0.45;0.45;;;17.70;99.90;;;;;;5051682;28;20194;-73
2022/07/20 00:59:42;;;;;;;0.55;0.55;;;17.70;99.90;;;;;;5050519;28;20616;-74
2022/07/20 01:02:08;;;;;;;0.40;0.40;;;17.70;99.90;;;;;;5051534;28;20704;-73
2022/07/20 01:04:34;;;;;;;0.77;0.47;;;17.70;99.90;;;;;;5033590;28;20296;-73
2022/07/20 01:07:00;;;;;;;1.65;0.88;;;17.70;99.90;;;;;;5030357;28;20198;-74
2022/07/20 01:09:26;;;;;;;0.30;0.30;;;17.70;99.90;;;;;;5031683;28;20194;-73
2022/07/20 01:11:52;;;;;;;0.40;0.40;;;17.70;99.90;;;;;;5031433;28;20209;-73
2022/07/20 01:14:17;;;;;;;0.50;0.50;;;17.70;99.90;;;;;;5031881;28;20207;-73
2022/07/20 01:16:43;;;;;;;0.47;0.47;;;17.70;99.90;;;;;;5032703;28;20187;-73
2022/07/20 01:19:09;;;;;;;0.60;0.60;;;17.60;99.90;;;;;;5041623;28;20190;-73
2022/07/20 01:21:40;;;;;;;0.98;0.50;;;17.60;99.90;;;;;;5031270;28;20201;-74
2022/07/20 01:24:10;;;;;;;1.23;0.82;;;17.60;99.90;;;;;;5031594;28;20193;-73
2022/07/20 01:26:41;;;;;;;0.50;0.50;;;17.60;99.90;;;;;;5048569;28;20330;-74
2022/07/20 01:29:07;;;;;;;0.40;0.40;;;17.60;99.90;;;;;;5055323;28;20205;-73
2022/07/20 01:31:33;;;;;;;0.70;0.70;;;17.60;99.90;;;;;;5071014;28;20255;-73
2022/07/20 01:33:59;;;;;;;0.68;0.50;;;17.70;99.90;;;;;;5070175;28;20220;-73
2022/07/20 01:36:25;;;;;;;0.90;0.75;;;17.60;99.90;;;;;;5070987;28;20430;-73
2022/07/20 01:38:50;;;;;;;0.50;0.50;;;17.70;99.90;;;;;;5071663;28;20623;-74
2022/07/20 01:41:16;;;;;;;0.55;0.55;;;17.70;99.90;;;;;;5073831;28;20295;-73
2022/07/20 01:43:42;;;;;;;0.73;0.73;;;17.70;99.90;;;;;;5082586;28;20261;-73
2022/07/20 01:46:07;;;;;;;0.30;0.30;;;17.80;99.90;;;;;;5058711;28;20634;-73
2022/07/20 01:48:33;;;;;;;0.52;0.52;;;17.80;99.90;;;;;;5055126;28;20194;-73
2022/07/20 01:50:59;;;;;;;0.38;0.38;;;17.70;99.90;;;;;;5055650;28;20199;-74
2022/07/20 01:53:25;;;;;;;4.05;0.80;;;17.70;99.90;;;;;;5054714;28;20209;-73
2022/07/20 01:55:53;;;;;;;0.63;0.60;;;17.70;99.90;;;;;;5054864;28;20189;-74
2022/07/20 01:58:20;;;;;;;0.60;0.60;;;17.70;99.90;;;;;;5053372;28;20246;-73
2022/07/20 02:00:46;;;;;;;0.68;0.68;;;17.80;99.90;;;;;;5055588;28;20241;-73
2022/07/20 02:03:12;;;;;;;2.28;0.80;;;17.70;99.90;;;;;;5053739;28;20225;-73
2022/07/20 02:05:38;;;;;;;0.88;0.82;;;17.60;99.90;;;;;;5058568;28;20236;-74
2022/07/20 02:08:03;;;;;;;1.52;0.82;;;17.60;99.90;;;;;;5075021;28;20193;-73
2022/07/20 02:10:29;;;;;;;0.68;0.50;;;17.60;99.90;;;;;;5074633;28;20201;-73
2022/07/20 02:12:55;;;;;;;1.85;1.27;;;17.50;99.90;;;;;;5074105;28;20342;-73
2022/07/20 02:18:10;;;;;;;0.90;0.68;;;17.50;99.90;;;;;;5055036;28;20250;-73
2022/07/20 02:20:36;;;;;;;0.63;0.63;;;17.50;99.90;;;;;;5054068;28;20201;-69
2022/07/20 02:23:05;;;;;;;0.50;0.50;;;17.40;99.90;;;;;;5054388;28;20786;-72
2022/07/20 02:25:31;;;;;;;0.70;0.70;;;17.40;99.90;;;;;;5050338;28;20298;-75
2022/07/20 02:27:57;;;;;;;0.40;0.40;;;17.40;99.90;;;;;;5054215;28;20189;-73
2022/07/20 02:30:23;;;;;;;1.17;1.08;;;17.40;99.90;;;;;;5054234;28;20680;-73
2022/07/20 02:32:49;;;;;;;0.52;0.52;;;17.40;99.90;;;;;;5054456;28;20213;-73
2022/07/20 02:35:15;;;;;;;0.50;0.50;;;17.50;99.90;;;;;;5054434;28;20185;-73
2022/07/20 02:37:41;;;;;;;0.50;0.50;;;17.40;99.90;;;;;;5054009;28;20189;-72
2022/07/20 02:40:07;;;;;;;0.57;0.57;;;17.40;99.90;;;;;;5054087;28;20255;-73
2022/07/20 02:42:33;;;;;;;1.27;0.90;;;17.40;99.90;;;;;;5053771;28;20208;-73
2022/07/20 02:44:58;;;;;;;0.30;0.30;;;17.40;99.90;;;;;;5036265;28;20622;-74
2022/07/20 02:47:24;;;;;;;0.60;0.60;;;17.50;99.90;;;;;;5054001;28;20255;-73
2022/07/20 02:49:50;;;;;;;0.55;0.55;;;17.50;99.90;;;;;;5053880;28;20262;-73
2022/07/20 02:52:15;;;;;;;0.47;0.47;;;17.60;99.90;;;;;;5053771;28;20240;-73
2022/07/20 02:54:41;;;;;;;0.50;0.50;;;17.60;99.90;;;;;;5054118;28;20200;-73
2022/07/20 02:57:07;;;;;;;0.90;0.65;;;17.70;99.90;;;;;;5053901;28;20197;-73
2022/07/20 02:59:32;;;;;;;0.95;0.68;;;17.70;99.90;;;;;;5053443;28;20201;-73
2022/07/20 03:01:58;;;;;;;0.55;0.55;;;17.70;99.90;;;;;;5037102;28;20198;-73
2022/07/20 03:04:24;;;;;;;0.70;0.60;;;17.70;99.90;;;;;;5049696;28;20201;-73
2022/07/20 03:06:49;;;;;;;0.30;0.30;;;17.70;99.90;;;;;;5035727;28;20415;-74
2022/07/20 03:09:15;;;;;;;0.60;0.60;;;17.80;99.90;;;;;;5053273;28;20197;-73
2022/07/20 03:11:41;;;;;;;0.43;0.43;;;17.90;99.90;;;;;;5035979;28;20209;-74
2022/07/20 03:14:06;;;;;;;0.55;0.55;;;17.90;99.90;;;;;;5035582;28;20197;-72
2022/07/20 03:16:32;;;;;;;0.70;0.60;;;17.90;99.90;;;;;;5022825;28;20285;-72
2022/07/20 03:18:58;;;;;;;2.00;0.55;;;18.00;99.90;;;;;;5033423;28;20197;-74
2022/07/20 03:21:25;;;;;;;0.50;0.50;;;18.10;99.90;;;;;;5036379;28;20201;-73
2022/07/20 03:23:51;;;;;;;0.30;0.30;;;18.20;99.90;;;;;;5053612;28;20200;-74
2022/07/20 03:26:18;;;;;;;0.50;0.50;;;18.20;99.90;;;;;;5053047;28;20233;-73
2022/07/20 03:28:44;;;;;;;0.50;0.40;;;18.30;99.90;;;;;;5053116;28;20206;-74
2022/07/20 03:31:11;;;;;;;0.43;0.43;;;18.30;99.90;;;;;;5034891;28;20205;-74
2022/07/20 03:33:37;;;;;;;0.63;0.57;;;18.30;99.90;;;;;;5052817;28;20208;-73
2022/07/20 03:36:03;;;;;;;0.50;0.50;;;18.40;99.90;;;;;;5046711;28;20277;-73
2022/07/20 03:38:28;;;;;;;0.43;0.43;;;18.50;99.90;;;;;;5031633;28;20197;-73
2022/07/20 03:40:54;;;;;;;0.40;0.40;;;18.50;99.90;;;;;;5035000;28;20190;-73
2022/07/20 03:43:21;;;;;;;1.08;0.85;;;18.60;99.90;;;;;;5052571;28;20193;-73
2022/07/20 03:45:47;;;;;;;0.60;0.60;;;18.70;99.90;;;;;;5053109;28;20192;-73
2022/07/20 03:48:13;;;;;;;0.43;0.43;;;18.70;99.90;;;;;;5053114;28;20186;-73
2022/07/20 03:50:39;;;;;;;2.00;1.05;;;18.70;99.90;;;;;;5053045;28;20198;-74
2022/07/20 03:53:05;;;;;;;0.50;0.50;;;18.70;99.90;;;;;;5052911;28;20201;-74
2022/07/20 03:55:30;;;;;;;0.32;0.32;;;18.70;99.90;;;;;;5052656;28;20193;-74
2022/07/20 03:57:56;;;;;;;0.57;0.57;;;18.70;99.90;;;;;;5034619;28;20193;-73
2022/07/20 04:00:22;;;;;;;0.60;0.60;;;18.70;99.90;;;;;;5052360;28;20224;-74
2022/07/20 04:02:48;;;;;;;0.73;0.50;;;18.70;99.90;;;;;;5052184;28;20185;-73
2022/07/20 04:05:13;;;;;;;0.60;0.60;;;18.70;99.90;;;;;;5052249;28;20276;-72
2022/07/20 04:07:39;;;;;;;0.75;0.60;;;18.70;99.90;;;;;;5032993;28;20665;-72
2022/07/20 04:10:05;;;;;;;0.40;0.40;;;18.80;99.90;;;;;;5032639;28;20229;-73
2022/07/20 04:12:31;;;;;;;0.85;0.85;;;18.90;99.90;;;;;;5014399;28;20214;-73
2022/07/20 04:14:56;;;;;;;0.60;0.60;;;18.90;99.90;;;;;;5014668;28;20238;-72
2022/07/20 04:17:23;;;;;;;0.45;0.45;;;18.90;99.90;;;;;;5033055;28;20192;-74
2022/07/20 04:19:49;;;;;;;0.57;0.57;;;19.00;99.90;;;;;;5034109;28;20201;-73
2022/07/20 04:22:15;;;;;;;0.85;0.70;;;19.10;99.90;;;;;;5052063;28;20660;-72
2022/07/20 04:24:40;;;;;;;0.47;0.47;;;19.40;99.90;;;;;;5052170;28;20222;-73
2022/07/20 04:27:06;;;;;;;0.60;0.60;;;19.40;99.90;;;;;;5052307;28;20197;-73
2022/07/20 04:29:32;;;;;;;1.05;0.55;;;19.40;99.90;;;;;;5051647;28;20197;-73
2022/07/20 04:31:58;;;;;;;3.45;0.82;;;19.20;99.90;;;;;;5048190;28;20246;-73
2022/07/20 04:34:24;;;;;;;0.50;0.40;;;19.10;99.90;;;;;;5031708;28;20248;-73
2022/07/20 04:36:50;;;;;;;0.57;0.57;;;19.10;99.90;;;;;;5031953;28;20229;-73
2022/07/20 04:39:16;;;;;;;1.25;0.93;;;19.10;99.90;;;;;;5031875;28;20563;-73
2022/07/20 04:41:41;;;;;;;0.40;0.40;;;19.20;99.90;;;;;;5031836;28;20197;-74
2022/07/20 04:44:07;;;;;;;2.15;1.08;;;19.30;99.90;;;;;;5014142;28;20661;-73
2022/07/20 04:46:33;;;;;;;0.40;0.40;;;19.20;99.90;;;;;;5031768;28;20195;-73
2022/07/20 04:48:59;;;;;;;0.30;0.30;;;19.20;99.90;;;;;;5031822;28;20205;-73
2022/07/20 04:51:25;;;;;;;0.40;0.40;;;19.30;99.90;;;;;;5031170;28;20206;-73
2022/07/20 04:53:51;;;;;;;1.17;0.93;;;19.40;99.90;;;;;;5032284;28;20688;-74
2022/07/20 04:56:18;;;;;;;1.10;0.95;;;19.40;99.90;;;;;;5031644;28;20662;-73
2022/07/20 04:58:45;;;;;;;1.15;0.80;;;19.50;99.90;;;;;;5031448;28;20186;-74
2022/07/20 05:01:10;;;;;;;0.57;0.57;;;19.50;99.90;;;;;;5031491;28;20675;-74
2022/07/20 05:03:36;;;;;;;1.20;0.80;;;19.50;99.90;;;;;;5013568;28;20285;-74
2022/07/20 05:06:02;;;;;;;1.65;0.60;;;19.50;99.90;;;;;;5017641;28;20233;-73
2022/07/20 05:08:28;;;;;;;0.85;0.52;;;19.60;99.90;;;;;;5031436;28;20192;-73
2022/07/20 05:10:53;;;;;;;2.83;1.38;;;19.70;99.90;;;;;;5031616;28;20740;-72
2022/07/20 05:13:19;;;;;;;4.57;1.48;;;19.80;99.90;;;;;;5013565;28;20214;-73
2022/07/20 05:15:45;;;;;;;0.95;0.75;;;19.90;99.90;;;;;;5031221;28;20198;-72
2022/07/20 05:18:10;;;;;;;0.50;0.50;;;20.00;99.90;;;;;;5013736;28;20202;-74
2022/07/20 05:20:36;;;;;;;0.73;0.73;;;20.10;99.90;;;;;;5031282;28;20669;-74
2022/07/20 05:23:01;;;;;;;0.70;0.70;;;20.10;99.90;;;;;;5031643;28;20209;-73
2022/07/20 05:25:27;;;;;;;0.50;0.50;;;20.00;99.90;;;;;;5031338;28;20226;-73
2022/07/20 05:27:53;;;;;;;0.82;0.82;;;20.00;99.90;;;;;;5014093;28;20194;-73
2022/07/20 05:30:18;;;;;;;0.55;0.55;;;20.00;99.90;;;;;;5039744;28;20740;-73
2022/07/20 05:32:44;;;;;;;0.60;0.60;;;20.20;99.90;;;;;;5031245;28;20585;-74
2022/07/20 05:35:10;;;;;;;2.63;0.68;;;20.40;99.90;;;;;;5031441;28;20186;-73
2022/07/20 05:37:36;;;;;;;1.23;0.70;;;20.50;99.90;;;;;;5031282;28;20312;-73
2022/07/20 05:40:02;;;;;;;1.25;0.95;;;20.40;99.90;;;;;;5031391;28;20736;-74
2022/07/20 05:42:28;;;;;;;1.20;0.90;;;20.40;99.90;;;;;;5030872;28;20209;-73
2022/07/20 05:44:54;;;;;;;0.52;0.52;;;20.50;99.90;;;;;;5031302;28;20191;-74
2022/07/20 05:47:21;;;;;;;0.38;0.38;;;20.70;99.90;;;;;;5030982;28;20248;-74
2022/07/20 05:49:47;;;;;;;1.60;0.82;;;20.80;99.90;;;;;;5013718;28;20202;-73
2022/07/20 05:52:14;;;;;;;0.77;0.75;;;20.80;99.90;;;;;;5031252;28;20210;-73
2022/07/20 05:54:40;;;;;;;0.52;0.50;;;20.90;99.90;;;;;;5030953;28;20225;-74
2022/07/20 05:57:06;;;;;;;1.05;0.63;;;21.10;99.90;;;;;;5031176;28;20218;-74
2022/07/20 05:59:32;;;;;;;0.40;0.40;;;21.30;99.90;;;;;;5044817;28;20201;-74
2022/07/20 06:01:58;;;;;;;1.17;0.85;;;21.30;99.90;;;;;;5032816;28;20614;-74
2022/07/20 06:04:23;;;;;;;0.50;0.50;;;21.30;99.90;;;;;;5050982;28;20216;-73
2022/07/20 06:06:49;;;;;;;1.27;1.00;;;21.40;99.90;;;;;;5050588;28;20501;-73
2022/07/20 06:09:15;;;;;;;0.88;0.75;;;21.20;99.90;;;;;;5050776;28;20255;-74
2022/07/20 06:11:40;;;;;;;0.52;0.52;;;21.50;99.90;;;;;;5034807;28;20264;-73
2022/07/20 06:14:06;;;;;;;0.40;0.40;;;21.50;99.90;;;;;;5031304;28;20593;-74
2022/07/20 06:16:32;;;;;;;0.98;0.90;;;21.60;99.90;;;;;;5013069;28;20198;-73
2022/07/20 06:18:58;;;;;;;0.50;0.50;;;21.70;99.90;;;;;;5030717;28;20626;-74
2022/07/20 06:21:24;;;;;;;13.25;0.82;;;21.60;99.90;;;;;;5030627;28;20284;-74
2022/07/20 06:23:49;;;;;;;1.05;0.57;;;21.80;99.90;;;;;;5013639;28;20198;-74
2022/07/20 06:26:15;;;;;;;0.88;0.52;;;21.80;99.90;;;;;;5043282;28;20218;-73
2022/07/20 06:28:41;;;;;;;1.25;0.93;;;22.10;99.90;;;;;;5034558;28;20190;-73
2022/07/20 06:31:07;;;;;;;3.22;0.73;;;22.20;99.90;;;;;;5016370;28;20300;-75
2022/07/20 06:33:33;;;;;;;0.43;0.40;;;22.20;99.90;;;;;;5016313;28;20566;-73
2022/07/20 06:35:59;;;;;;;2.90;0.55;;;22.20;99.90;;;;;;5034196;28;20268;-73
2022/07/20 06:38:25;;;;;;;3.40;1.20;;;22.40;99.90;;;;;;5016279;28;20199;-74
2022/07/20 06:40:51;;;;;;;0.88;0.60;;;22.50;99.90;;;;;;5016391;28;20256;-73
2022/07/20 06:43:17;;;;;;;1.15;0.90;;;22.60;99.90;;;;;;5034151;28;20316;-73
2022/07/20 06:45:43;;;;;;;0.52;0.50;;;22.80;99.90;;;;;;5016265;28;20275;-72
2022/07/20 06:48:08;;;;;;;0.85;0.85;;;22.90;99.90;;;;;;5016445;28;20279;-73
2022/07/20 06:50:34;;;;;;;1.85;0.52;;;23.10;99.90;;;;;;5034331;28;20550;-74
2022/07/20 06:53:00;;;;;;;1.15;0.40;;;23.30;99.90;;;;;;5016245;28;20292;-76
2022/07/20 06:55:25;;;;;;;1.15;1.05;;;23.30;99.90;;;;;;5044687;28;20197;-74
2022/07/20 06:57:51;;;;;;;0.90;0.60;;;23.20;99.90;;;;;;5054118;28;20185;-73
2022/07/20 07:00:17;;;;;;;0.50;0.50;;;23.30;99.90;;;;;;5036386;28;20194;-75
2022/07/20 07:02:42;;;;;;;1.02;0.93;;;23.50;99.90;;;;;;5053803;28;20201;-74
2022/07/20 07:05:09;;;;;;;0.82;0.75;;;23.70;99.90;;;;;;5053486;28;20190;-73
2022/07/20 07:07:35;;;;;;;0.77;0.77;;;23.70;99.90;;;;;;5035553;28;20204;-75
2022/07/20 07:10:01;;;;;;;0.77;0.77;;;23.80;99.90;;;;;;5053953;28;20613;-70
2022/07/20 07:12:26;;;;;;;2.42;0.88;;;23.80;99.90;;;;;;5053587;28;20205;-72
2022/07/20 07:14:52;;;;;;;0.95;0.75;;;24.00;99.90;;;;;;5054344;28;20204;-73
2022/07/20 07:17:18;;;;;;;0.93;0.73;;;24.00;99.90;;;;;;5053925;28;20190;-71
2022/07/20 07:19:44;;;;;;;6.38;1.80;;;23.90;99.90;;;;;;5035727;28;20285;-72
2022/07/20 07:22:10;;;;;;;0.93;0.70;;;23.80;99.90;;;;;;5038192;28;20198;-73
2022/07/20 07:24:36;;;;;;;0.60;0.52;;;23.80;99.90;;;;;;5033250;28;20194;-72
2022/07/20 07:27:02;;;;;;;1.08;0.98;;;23.70;99.90;;;;;;5015399;28;20240;-74
2022/07/20 07:29:28;;;;;;;0.40;0.40;;;23.90;99.90;;;;;;5015132;28;20298;-73
2022/07/20 07:31:58;;;;;;;1.13;0.88;;;24.10;99.90;;;;;;5033154;28;20210;-74
2022/07/20 07:34:28;;;;;;;0.70;0.70;;;24.30;99.90;;;;;;5033346;28;20187;-73
2022/07/20 07:36:54;;;;;;;0.50;0.50;;;24.50;99.90;;;;;;5031763;28;20187;-74
2022/07/20 07:39:20;;;;;;;1.70;0.90;;;24.60;99.90;;;;;;5014739;28;20191;-73
2022/07/20 07:41:46;;;;;;;3.00;0.57;;;24.80;99.90;;;;;;5032711;28;20216;-72
2022/07/20 07:44:12;;;;;;;1.10;0.82;;;24.90;99.90;;;;;;5032874;28;20586;-72
2022/07/20 07:46:37;;;;;;;1.42;1.02;;;25.20;99.90;;;;;;5032810;28;20534;-73
2022/07/20 07:49:04;;;;;;;0.68;0.50;;;25.30;99.90;;;;;;5032574;28;20194;-73
2022/07/20 07:51:30;;;;;;;0.82;0.80;;;25.40;99.90;;;;;;5041913;28;20233;-73
2022/07/20 07:53:56;;;;;;;2.03;1.25;;;25.60;99.90;;;;;;5034746;28;20193;-72
2022/07/20 07:56:22;;;;;;;1.17;0.80;;;25.90;99.90;;;;;;5052279;28;20201;-73
2022/07/20 07:58:48;;;;;;;0.70;0.70;;;26.30;99.90;;;;;;5052370;28;20608;-73
2022/07/20 08:01:14;;;;;;;0.70;0.70;;;26.40;99.90;;;;;;5052715;28;20192;-73
2022/07/20 08:03:39;;;;;;;1.15;0.68;;;26.40;99.90;;;;;;5034202;28;20197;-73
2022/07/20 08:06:05;;;;;;;0.75;0.68;;;26.50;99.90;;;;;;5052009;28;20193;-75
2022/07/20 08:08:31;;;;;;;0.98;0.60;;;26.50;99.90;;;;;;5052340;28;20193;-72
2022/07/20 08:10:57;;;;;;;0.85;0.85;;;26.80;99.90;;;;;;5052271;28;20198;-74
2022/07/20 08:13:23;;;;;;;0.80;0.80;;;27.10;99.90;;;;;;5034028;28;20209;-73
2022/07/20 08:15:49;;;;;;;1.35;0.82;;;27.00;99.90;;;;;;5034221;28;20319;-73
2022/07/20 08:18:14;;;;;;;0.82;0.65;;;27.10;99.90;;;;;;5047272;28;20193;-72
2022/07/20 08:20:40;;;;;;;0.35;0.35;;;27.20;99.90;;;;;;5032048;28;20197;-74
2022/07/20 08:23:07;;;;;;;0.55;0.55;;;27.30;99.90;;;;;;5032101;28;20197;-73
2022/07/20 08:25:32;;;;;;;0.60;0.60;;;27.40;99.90;;;;;;5031680;28;20225;-72
2022/07/20 08:28:09;;;;;;;0.63;0.60;;;27.50;99.90;;;;;;5031973;28;20198;-73
2022/07/20 08:30:34;;;;;;;0.47;0.47;;;27.70;99.90;;;;;;5013974;28;20286;-73
2022/07/20 08:33:00;;;;;;;1.83;1.33;;;27.40;99.90;;;;;;5031793;28;20249;-73
2022/07/20 08:35:26;;;;;;;2.55;0.68;;;27.30;99.90;;;;;;5031778;28;20300;-73
2022/07/20 08:37:51;;;;;;;1.00;0.63;;;27.30;99.90;;;;;;5031878;28;20349;-73
2022/07/20 08:40:17;;;;;;;1.45;0.60;;;27.00;99.90;;;;;;5031852;28;20251;-73
2022/07/20 08:42:43;;;;;;;1.00;0.77;;;27.20;99.90;;;;;;5031705;28;20221;-73
2022/07/20 08:45:10;;;;;;;0.65;0.65;;;27.20;99.90;;;;;;5031743;28;20198;-73
2022/07/20 08:47:39;;;;;;;0.68;0.50;;;27.10;99.90;;;;;;5039384;28;20232;-72
2022/07/20 08:50:05;;;;;;;1.75;0.95;;;27.30;99.90;;;;;;5049817;28;20209;-73
2022/07/20 08:52:31;;;;;;;0.80;0.63;;;27.50;99.90;;;;;;5033358;28;20243;-73
2022/07/20 08:54:57;;;;;;;0.50;0.50;;;27.90;99.90;;;;;;5051556;28;20193;-73
2022/07/20 08:57:22;;;;;;;0.50;0.50;;;28.30;99.90;;;;;;5051134;28;20640;-73
2022/07/20 08:59:48;;;;;;;0.50;0.50;;;28.60;99.90;;;;;;5040424;28;20202;-73
2022/07/20 09:02:15;;;;;;;0.35;0.35;;;28.70;99.90;;;;;;5031442;28;20459;-73
2022/07/20 09:04:58;;;;;;;2.15;0.77;;;28.90;99.90;;;;;;5031384;28;20705;-73
2022/07/20 09:07:37;;;;;;;0.85;0.80;;;29.10;99.90;;;;;;5015353;28;20232;-73
2022/07/20 09:10:09;;;;;;;1.02;0.60;;;29.30;99.90;;;;;;5013657;28;20201;-73
2022/07/20 09:13:00;;;;;;;1.02;0.82;;;28.80;99.90;;;;;;5013422;28;20574;-73
2022/07/20 09:15:32;;;;;;;0.95;0.57;;;28.50;99.90;;;;;;5031017;28;20202;-73
2022/07/20 09:18:05;;;;;;;14.95;1.17;;;28.70;99.90;;;;;;5031223;28;20232;-73
2022/07/20 09:20:32;;;;;;;1.52;0.95;;;29.10;99.90;;;;;;5031000;28;20193;-73
2022/07/20 09:23:12;;;;;;;0.43;0.40;;;29.30;99.90;;;;;;5031293;28;20336;-72
2022/07/20 09:25:51;;;;;;;0.40;0.30;;;29.60;99.90;;;;;;5030961;28;20229;-73
2022/07/20 09:28:17;;;;;;;0.20;0.20;;;29.20;99.90;;;;;;5030838;28;20194;-72
2022/07/20 09:30:55;;;;;;;0.52;0.52;;;29.30;99.90;;;;;;5031074;28;20197;-72
2022/07/20 09:33:26;;;;;;;1.65;0.57;;;29.40;99.90;;;;;;5030618;28;20214;-71
2022/07/20 09:35:52;;;;;;;1.08;0.70;;;29.50;99.90;;;;;;5031086;28;20688;-73
2022/07/20 09:38:18;;;;;;;0.40;0.40;;;29.60;99.90;;;;;;5030887;28;20217;-72
2022/07/20 09:40:45;;;;;;;0.30;0.30;;;29.80;99.90;;;;;;5030975;28;20629;-73
2022/07/20 09:43:36;;;;;;;0.70;0.47;;;29.90;99.90;;;;;;5033677;28;20196;-73
2022/07/20 09:46:16;;;;;;;2.38;0.65;;;30.20;99.90;;;;;;5050912;28;20253;-72
2022/07/20 09:48:43;;;;;;;0.90;0.70;;;30.10;99.60;;;;;;5050795;28;20193;-72
2022/07/20 09:51:29;;;;;;;1.48;0.63;;;30.10;99.10;;;;;;5051249;28;20189;-72
2022/07/20 09:53:58;;;;;;;0.50;0.50;;;29.90;99.90;;;;;;5050465;28;20215;-73
2022/07/20 09:56:25;;;;;;;1.98;1.17;;;29.50;99.30;;;;;;5050578;28;20202;-73
2022/07/20 09:58:54;;;;;;;0.80;0.73;;;29.60;99.50;;;;;;5050728;28;20244;-73
2022/07/20 10:01:25;;;;;;;0.93;0.80;;;29.50;97.80;;;;;;5054241;28;20200;-73
2022/07/20 10:03:53;;;;;;;0.93;0.60;;;29.80;99.90;;;;;;5054623;28;20193;-73
2022/07/20 10:06:21;;;;;;;1.83;1.00;;;29.60;97.90;;;;;;5036192;28;20192;-73
2022/07/20 10:08:48;;;;;;;0.35;0.30;;;30.10;98.10;;;;;;5054659;28;20243;-73
2022/07/20 10:11:14;;;;;;;0.63;0.55;;;30.60;96.20;;;;;;5054310;28;20296;-73
2022/07/20 10:13:42;;;;;;;0.68;0.47;;;30.80;97.00;;;;;;5036570;28;20259;-73
2022/07/20 10:16:17;;;;;;;3.97;0.95;;;30.50;93.90;;;;;;5036623;28;20718;-73
2022/07/20 10:18:45;;;;;;;0.60;0.50;;;30.20;93.70;;;;;;5054282;28;20274;-73
2022/07/20 10:21:38;;;;;;;0.63;0.50;;;30.20;96.30;;;;;;5054930;28;20276;-73
2022/07/20 10:24:34;;;;;;;0.50;0.50;;;30.60;93.50;;;;;;5054718;28;20534;-73
2022/07/20 10:27:03;;;;;;;0.63;0.50;;;30.70;94.80;;;;;;5054298;28;20197;-73
2022/07/20 10:29:37;;;;;;;0.20;0.20;;;31.00;94.60;;;;;;5054108;28;20216;-73
2022/07/20 10:32:09;;;;;;;0.38;0.38;;;31.20;93.90;;;;;;5054075;28;20429;-73
2022/07/20 10:34:37;;;;;;;0.98;0.57;;;31.20;93.90;;;;;;5036146;28;20789;-72
2022/07/20 10:37:30;;;;;;;0.20;0.20;;;31.00;91.30;;;;;;5054478;28;20204;-73
2022/07/20 10:40:08;;;;;;;0.30;0.30;;;31.20;92.20;;;;;;5054337;28;20672;-73
2022/07/20 10:42:39;;;;;;;0.90;0.57;;;31.30;92.10;;;;;;5053930;28;20867;-73
2022/07/20 10:45:11;;;;;;;0.50;0.40;;;31.60;91.10;;;;;;5054304;28;20197;-73
2022/07/20 10:47:43;;;;;;;0.90;0.50;;;31.60;92.30;;;;;;5035911;28;20197;-73
2022/07/20 10:50:28;;;;;;;0.63;0.55;;;31.40;90.50;;;;;;5053927;28;20204;-73
2022/07/20 10:53:16;;;;;;;1.70;0.90;;;31.60;91.10;;;;;;5053479;28;20213;-73
2022/07/20 10:55:41;;;;;;;0.93;0.65;;;31.90;88.10;;;;;;5046462;28;20288;-73
2022/07/20 10:58:35;;;;;;;0.10;0.10;;;32.10;90.60;;;;;;5035696;28;20223;-73
2022/07/20 11:01:02;;;;;;;0.50;0.50;;;32.00;90.20;;;;;;5051681;28;20276;-73
2022/07/20 11:03:30;;;;;;;1.02;0.40;;;31.70;87.80;;;;;;5053324;28;20193;-73
2022/07/20 11:06:20;;;;;;;1.02;0.52;;;31.60;84.70;;;;;;5053317;28;20197;-73
2022/07/20 11:09:11;;;;;;;0.70;0.40;;;31.70;87.40;;;;;;5054068;28;20750;-72
2022/07/20 11:11:38;;;;;;;0.25;0.25;;;31.90;87.30;;;;;;5048227;28;20220;-73
2022/07/20 11:14:06;;;;;;;0.77;0.68;;;31.90;82.20;;;;;;5053635;28;20192;-73
2022/07/20 11:16:34;;;;;;;0.40;0.40;;;31.70;82.50;;;;;;5053561;28;20193;-73
2022/07/20 11:19:02;;;;;;;0.77;0.40;;;31.70;82.10;;;;;;5053450;28;20185;-73
2022/07/20 11:21:31;;;;;;;0.68;0.55;;;31.90;84.70;;;;;;5052951;28;20738;-73
2022/07/20 11:23:57;;;;;;;0.60;0.55;;;32.20;82.40;;;;;;5035452;28;20215;-72
2022/07/20 11:26:22;;;;;;;0.85;0.50;;;32.40;83.90;;;;;;5065949;28;20232;-73
2022/07/20 11:28:54;;;;;;;0.65;0.60;;;32.40;83.30;;;;;;5073580;28;20192;-73
2022/07/20 11:31:23;;;;;;;0.43;0.40;;;32.30;81.70;;;;;;5071993;28;20192;-73
2022/07/20 11:33:52;;;;;;;0.65;0.57;;;32.00;83.00;;;;;;5071797;28;20196;-73
2022/07/20 11:36:25;;;;;;;0.55;0.45;;;32.40;87.00;;;;;;5072973;28;20213;-72
2022/07/20 11:38:56;;;;;;;1.25;0.55;;;32.40;80.90;;;;;;5071728;28;20337;-73
2022/07/20 11:41:24;;;;;;;1.48;0.98;;;32.50;79.30;;;;;;5072819;28;20633;-73
2022/07/20 11:43:51;;;;;;;0.40;0.40;;;32.30;85.40;;;;;;5073284;28;20189;-73
2022/07/20 11:46:22;;;;;;;0.75;0.75;;;32.50;84.10;;;;;;5073245;28;20189;-73
2022/07/20 11:49:10;;;;;;;1.48;0.90;;;32.00;77.90;;;;;;5072805;28;20529;-72
2022/07/20 11:51:37;;;;;;;3.22;0.95;;;32.40;78.40;;;;;;5062948;28;20220;-73
2022/07/20 11:54:07;;;;;;;1.45;1.00;;;32.60;79.30;;;;;;5071729;28;20200;-73
2022/07/20 11:56:34;;;;;;;0.85;0.55;;;32.10;77.80;;;;;;5071474;28;20196;-73
2022/07/20 11:59:02;;;;;;;1.35;0.80;;;32.20;81.30;;;;;;5072548;28;20566;-72
2022/07/20 12:01:30;;;;;;;0.63;0.57;;;32.50;84.30;;;;;;5072211;28;20717;-73
2022/07/20 12:04:00;;;;;;;1.25;0.85;;;32.40;79.80;;;;;;5071709;28;20258;-72
2022/07/20 12:06:29;;;;;;;0.95;0.70;;;32.40;81.40;;;;;;5062830;28;20192;-73
2022/07/20 12:09:06;;;;;;;1.20;0.95;;;32.20;81.90;;;;;;5072458;28;20639;-73
2022/07/20 12:11:33;;;;;;;7.43;1.05;;;31.80;82.30;;;;;;5072216;28;20233;-73
2022/07/20 12:13:59;;;;;;;1.42;0.98;;;32.20;80.50;;;;;;5072455;28;20200;-73
2022/07/20 12:16:36;;;;;;;1.08;0.60;;;32.50;77.90;;;;;;5070945;28;20589;-73
2022/07/20 12:19:04;;;;;;;0.82;0.75;;;32.00;78.50;;;;;;5072176;28;20188;-73
2022/07/20 12:21:41;;;;;;;0.47;0.47;;;32.00;79.40;;;;;;5071063;28;20651;-73
2022/07/20 12:24:07;;;;;;;2.00;1.00;;;32.30;82.10;;;;;;5072189;28;20199;-73
2022/07/20 12:26:37;;;;;;;1.58;0.80;;;32.00;77.80;;;;;;5054169;28;20236;-73
2022/07/20 12:29:21;;;;;;;1.58;0.82;;;32.30;81.50;;;;;;5052293;28;20726;-73
2022/07/20 12:32:04;;;;;;;1.23;0.73;;;32.80;81.20;;;;;;5051718;28;20201;-73
2022/07/20 12:34:34;;;;;;;0.63;0.60;;;32.90;77.50;;;;;;5052081;28;20189;-73
2022/07/20 12:36:59;;;;;;;0.63;0.63;;;33.20;81.10;;;;;;5051978;28;20744;-74
2022/07/20 12:39:40;;;;;;;1.20;0.73;;;32.90;77.80;;;;;;5033756;28;20277;-73
2022/07/20 12:42:12;;;;;;;1.42;0.85;;;32.90;77.50;;;;;;5052264;28;20214;-73
2022/07/20 12:44:39;;;;;;;1.10;0.77;;;32.00;76.70;;;;;;5051563;28;20219;-73
2022/07/20 12:47:05;;;;;;;0.68;0.55;;;31.80;81.30;;;;;;5051879;28;20556;-73
2022/07/20 12:49:32;;;;;;;0.35;0.35;;;32.00;76.40;;;;;;5051444;28;20197;-73
2022/07/20 12:51:58;;;;;;;0.77;0.75;;;32.00;77.10;;;;;;5051943;28;20217;-73
2022/07/20 12:54:25;;;;;;;0.57;0.50;;;32.50;79.10;;;;;;5051693;28;20193;-73
2022/07/20 12:56:51;;;;;;;1.38;0.75;;;33.00;79.10;;;;;;5051853;28;20206;-73